createdAt,value
2019-01-22T05:49:22.133Z,52.80
2019-01-22T05:51:58.363Z,50.73
2019-01-22T05:54:52.520Z,57.98
2019-01-22T05:57:23.900Z,57.15
2019-01-22T06:00:02.557Z,60.08
2019-01-22T06:02:35.777Z,55.73
2019-01-22T06:05:41.131Z,52.85
2019-01-22T06:08:23.432Z,54.70
2019-01-22T06:11:08.564Z,56.23
2019-01-22T06:14:01.559Z,56.77
2019-01-22T06:17:08.677Z,53.65
2019-01-22T06:20:17.841Z,55.83
2019-01-22T06:23:15.051Z,58.25
2019-01-22T06:26:02.585Z,53.10
2019-01-22T06:28:52.648Z,54.95
2019-01-22T06:31:28.788Z,58.38
2019-01-22T06:34:05.000Z,57.55
2019-01-22T06:36:56.539Z,53.85
2019-01-22T06:39:32.709Z,55.63
2019-01-22T06:42:27.523Z,54.55
2019-01-22T06:45:18.715Z,56.92
2019-01-22T06:47:54.907Z,52.20
2019-01-22T06:50:48.213Z,53.30
2019-01-22T06:53:21.417Z,54.90
2019-01-22T06:56:06.660Z,59.35
2019-01-22T06:58:48.895Z,53.85
2019-01-22T07:01:38.901Z,54.73
2019-01-22T07:04:12.128Z,54.03
2019-01-22T07:06:54.335Z,55.60
2019-01-22T07:09:27.615Z,55.95
2019-01-22T07:12:12.903Z,53.48
2019-01-22T07:15:02.711Z,56.53
2019-01-22T07:17:55.623Z,52.73
2019-01-22T07:21:03.874Z,51.90
2019-01-22T07:24:03.034Z,50.70
2019-01-22T07:26:51.417Z,48.75
2019-01-22T07:29:36.803Z,49.75
2019-01-22T07:32:12.568Z,53.60
2019-01-22T07:35:02.745Z,55.85
2019-01-22T07:37:38.938Z,54.27
2019-01-22T07:40:12.136Z,57.15
2019-01-22T07:43:06.722Z,51.68
2019-01-22T07:45:48.998Z,49.67
2019-01-22T07:48:22.223Z,51.55
2019-01-22T07:51:10.608Z,51.02
2019-01-22T07:53:56.178Z,47.75
2019-01-22T07:56:59.830Z,49.13
2019-01-22T07:59:51.284Z,49.53
2019-01-22T08:02:39.039Z,49.58
2019-01-22T08:05:25.747Z,48.00
2019-01-22T08:08:12.738Z,48.33
2019-01-22T08:11:05.567Z,47.40
2019-01-22T08:13:50.751Z,58.70
2019-01-22T08:16:46.819Z,33.18
2019-01-22T08:19:22.872Z,36.90
2019-01-22T08:22:22.737Z,43.00
2019-01-22T08:25:11.373Z,44.58
2019-01-22T08:27:59.820Z,45.40
2019-01-22T08:30:41.474Z,45.38
2019-01-22T08:33:14.701Z,43.00
2019-01-22T08:36:00.121Z,44.03
2019-01-22T08:38:33.433Z,45.75
2019-01-22T08:41:09.592Z,44.27
2019-01-22T08:43:45.782Z,46.10
2019-01-22T08:46:35.684Z,43.28
2019-01-22T08:49:08.911Z,42.38
2019-01-22T08:51:56.756Z,42.95
2019-01-22T08:54:38.977Z,44.42
2019-01-22T08:57:20.715Z,44.20
2019-01-22T08:59:56.487Z,42.53
2019-01-22T09:02:49.673Z,43.70
2019-01-22T09:05:48.810Z,43.90
2019-01-22T09:08:30.991Z,45.25
2019-01-22T09:11:22.073Z,45.98
2019-01-22T09:13:58.357Z,42.65
2019-01-22T09:16:43.802Z,44.88
2019-01-22T09:19:35.202Z,45.20
2019-01-22T09:22:32.703Z,46.98
2019-01-22T09:25:17.862Z,42.88
2019-01-22T09:27:59.778Z,42.50
2019-01-22T09:30:41.947Z,42.05
2019-01-22T09:33:24.069Z,40.40
2019-01-22T09:36:06.200Z,41.25
2019-01-22T09:38:36.538Z,40.03
2019-01-22T09:41:06.592Z,41.25
2019-01-22T09:43:36.762Z,41.58
2019-01-22T09:46:06.980Z,40.43
2019-01-22T09:48:37.084Z,43.23
2019-01-22T09:51:07.164Z,40.52
2019-01-22T09:53:37.577Z,40.73
2019-01-22T09:56:07.636Z,37.70
2019-01-22T09:58:37.731Z,40.75
2019-01-22T10:01:34.997Z,48.68
2019-01-22T10:04:24.098Z,42.13
2019-01-22T10:07:13.647Z,39.13
2019-01-22T10:10:02.303Z,40.35
2019-01-22T10:12:51.326Z,40.25
2019-01-22T10:15:40.183Z,38.50
2019-01-22T10:18:28.751Z,39.00
2019-01-22T10:21:17.832Z,40.38
2019-01-22T10:24:06.590Z,38.90
2019-01-22T10:26:55.342Z,38.98
2019-01-22T10:29:44.958Z,39.27
2019-01-22T10:32:34.014Z,38.45
2019-01-22T10:35:22.595Z,38.15
2019-01-22T10:38:11.330Z,36.40
2019-01-22T10:41:00.105Z,36.38
2019-01-22T10:43:49.017Z,34.88
2019-01-22T10:46:37.783Z,35.60
2019-01-22T10:49:26.834Z,36.00
2019-01-22T10:52:15.674Z,35.03
2019-01-22T10:55:06.524Z,36.03
2019-01-22T10:57:55.454Z,37.33
2019-01-22T11:00:44.087Z,36.10
2019-01-22T11:03:32.864Z,34.98
2019-01-22T11:06:21.399Z,37.25
2019-01-22T11:09:10.008Z,41.55
2019-01-22T11:11:58.743Z,36.35
2019-01-22T11:14:47.297Z,35.50
2019-01-22T11:17:36.097Z,36.45
2019-01-22T11:20:27.302Z,35.50
2019-01-22T11:23:16.197Z,36.17
2019-01-22T11:26:06.651Z,35.90
2019-01-22T11:28:56.359Z,35.68
2019-01-22T11:31:45.621Z,37.50
2019-01-22T11:34:34.541Z,34.78
2019-01-22T11:37:23.223Z,34.53
2019-01-22T11:40:18.220Z,35.52
2019-01-22T11:43:07.179Z,35.23
2019-01-22T11:45:55.996Z,34.48
2019-01-22T11:48:44.856Z,32.93
2019-01-22T11:51:33.473Z,33.08
2019-01-22T11:54:21.938Z,32.03
2019-01-22T11:57:10.775Z,33.80
2019-01-22T11:59:59.392Z,31.15
2019-01-22T12:02:49.211Z,31.00
2019-01-22T12:05:38.871Z,31.33
2019-01-22T12:08:27.730Z,31.85
2019-01-22T12:11:16.324Z,30.37
2019-01-22T12:14:05.033Z,28.90
2019-01-22T12:16:53.577Z,29.60
2019-01-22T12:19:42.931Z,29.95
2019-01-22T12:22:31.687Z,28.87
2019-01-22T12:25:20.627Z,28.85
2019-01-22T12:28:09.442Z,31.07
2019-01-22T12:30:59.438Z,27.13
2019-01-22T12:33:48.224Z,27.73
2019-01-22T12:36:37.195Z,25.92
2019-01-22T12:39:25.730Z,33.83
2019-01-22T12:42:14.623Z,27.62
2019-01-22T12:45:03.295Z,33.73
2019-01-22T12:47:51.823Z,28.75
2019-01-22T12:50:40.712Z,24.95
2019-01-22T12:53:29.367Z,26.00
2019-01-22T12:56:18.191Z,24.80
2019-01-22T12:59:06.958Z,24.98
2019-01-22T13:01:55.712Z,24.07
2019-01-22T13:04:44.802Z,26.10
2019-01-22T13:07:33.743Z,23.25
2019-01-22T13:10:22.577Z,24.27
2019-01-22T13:13:11.325Z,61.73
2019-01-22T13:16:00.311Z,31.57
2019-01-22T13:18:49.150Z,24.55
2019-01-22T13:21:37.611Z,24.20
2019-01-22T13:24:26.689Z,25.20
2019-01-22T13:27:15.571Z,25.92
2019-01-22T13:30:07.408Z,25.82
2019-01-22T13:32:56.016Z,22.98
2019-01-22T13:35:45.094Z,22.48
2019-01-22T13:38:33.649Z,22.98
2019-01-22T13:41:22.535Z,21.23
2019-01-22T13:44:11.291Z,38.50
2019-01-22T13:46:59.993Z,30.30
2019-01-22T13:49:48.722Z,22.45
2019-01-22T13:52:37.292Z,23.50
2019-01-22T13:55:28.455Z,22.98
2019-01-22T13:58:17.003Z,23.18
2019-01-22T14:01:06.106Z,24.10
2019-01-22T14:03:54.898Z,25.12
2019-01-22T14:06:43.883Z,22.98
2019-01-22T14:09:32.272Z,21.30
2019-01-22T14:12:20.939Z,52.62
2019-01-22T14:15:18.579Z,22.13
2019-01-22T14:18:07.739Z,21.95
2019-01-22T14:20:56.506Z,22.58
2019-01-22T14:23:45.480Z,24.72
2019-01-22T14:26:34.307Z,31.27
2019-01-22T14:29:23.494Z,21.82
2019-01-22T14:32:11.963Z,23.60
2019-01-22T14:35:00.769Z,21.95
2019-01-22T14:37:49.577Z,23.67
2019-01-22T14:40:38.801Z,23.02
2019-01-22T14:43:28.004Z,21.48
2019-01-22T14:46:16.671Z,21.75
2019-01-22T14:49:05.239Z,21.87
2019-01-22T14:51:54.221Z,22.00
2019-01-22T14:54:43.206Z,22.15
2019-01-22T14:57:33.021Z,23.25
2019-01-22T15:00:26.680Z,21.97
2019-01-22T15:03:15.595Z,23.35
2019-01-22T15:06:04.828Z,24.32
2019-01-22T15:08:53.599Z,23.45
2019-01-22T15:11:42.070Z,71.05
2019-01-22T15:14:31.238Z,24.52
2019-01-22T15:17:20.048Z,23.65
2019-01-22T15:20:12.049Z,23.20
2019-01-22T15:23:00.867Z,24.25
2019-01-22T15:25:49.377Z,23.90
2019-01-22T15:28:38.124Z,24.92
2019-01-22T15:31:26.979Z,25.60
2019-01-22T15:34:15.514Z,25.35
2019-01-22T15:37:04.422Z,24.67
2019-01-22T15:39:56.484Z,25.37
2019-01-22T15:42:43.401Z,25.27
2019-01-22T15:45:32.061Z,25.72
2019-01-22T15:48:21.510Z,27.60
2019-01-22T15:51:10.983Z,27.58
2019-01-22T15:54:00.150Z,26.70
2019-01-22T15:56:49.925Z,27.73
2019-01-22T15:59:39.294Z,29.23
2019-01-22T16:02:28.461Z,29.32
2019-01-22T16:05:18.856Z,29.52
2019-01-22T16:08:07.713Z,28.95
2019-01-22T16:10:56.877Z,29.75
2019-01-22T16:13:46.451Z,30.05
2019-01-22T16:16:35.719Z,29.07
2019-01-22T16:19:25.395Z,29.48
2019-01-22T16:22:14.559Z,30.65
2019-01-22T16:25:03.828Z,29.65
2019-01-22T16:27:52.783Z,30.23
2019-01-22T16:30:41.901Z,30.62
2019-01-22T16:33:30.808Z,30.50
2019-01-22T16:36:20.075Z,32.40
2019-01-22T16:39:09.060Z,32.70
2019-01-22T16:41:59.636Z,32.30
2019-01-22T16:44:49.765Z,33.65
2019-01-22T16:47:38.965Z,32.60
2019-01-22T16:50:29.671Z,34.05
2019-01-22T16:53:18.893Z,37.23
2019-01-22T16:56:07.919Z,34.55
2019-01-22T16:58:57.084Z,35.43
2019-01-22T17:01:46.143Z,32.78
2019-01-22T17:04:35.509Z,32.85
2019-01-22T17:07:24.473Z,34.18
2019-01-22T17:10:16.811Z,33.15
2019-01-22T17:13:05.873Z,31.55
2019-01-22T17:15:55.859Z,33.18
2019-01-22T17:18:44.919Z,33.20
2019-01-22T17:21:35.622Z,37.42
2019-01-22T17:24:26.324Z,34.58
2019-01-22T17:27:15.593Z,33.50
2019-01-22T17:30:08.138Z,33.58
2019-01-22T17:33:02.725Z,32.85
2019-01-22T17:35:52.812Z,33.23
2019-01-22T17:38:43.107Z,31.68
2019-01-22T17:41:33.445Z,34.33
2019-01-22T17:44:23.172Z,33.20
2019-01-22T17:47:15.725Z,32.78
2019-01-22T17:50:15.121Z,34.80
2019-01-22T17:53:07.560Z,35.08
2019-01-22T17:55:57.855Z,36.38
2019-01-22T17:58:46.917Z,34.80
2019-01-22T18:01:36.334Z,35.48
2019-01-22T18:04:25.963Z,35.95
2019-01-22T18:07:16.770Z,33.67
2019-01-22T18:10:11.012Z,34.70
2019-01-22T18:13:00.782Z,33.98
2019-01-22T18:15:52.144Z,34.85
2019-01-22T18:18:45.964Z,34.25
2019-01-22T18:21:32.317Z,32.93
2019-01-22T18:24:22.764Z,33.18
2019-01-22T18:27:20.776Z,32.63
2019-01-22T18:30:18.660Z,29.18
2019-01-22T18:33:10.338Z,30.90
2019-01-22T18:35:59.547Z,30.68
2019-01-22T18:38:48.971Z,31.00
2019-01-22T18:41:38.078Z,30.65
2019-01-22T18:44:28.310Z,29.25
2019-01-22T18:47:17.848Z,29.82
2019-01-22T18:50:19.578Z,31.30
2019-01-22T18:53:08.718Z,29.42
2019-01-22T18:55:59.587Z,28.75
2019-01-22T18:58:50.628Z,29.30
2019-01-22T19:01:41.774Z,30.27
2019-01-22T19:04:32.492Z,30.48
2019-01-22T19:07:23.557Z,30.25
2019-01-22T19:10:18.142Z,30.68
2019-01-22T19:13:08.838Z,33.20
2019-01-22T19:15:58.204Z,34.95
2019-01-22T19:18:51.608Z,30.30
2019-01-22T19:21:43.728Z,30.27
2019-01-22T19:24:34.205Z,30.57
2019-01-22T19:27:24.558Z,29.90
2019-01-22T19:30:16.643Z,32.60
2019-01-22T19:33:08.536Z,31.85
2019-01-22T19:36:01.356Z,31.48
2019-01-22T19:38:51.037Z,31.90
2019-01-22T19:41:41.063Z,35.40
2019-01-22T19:44:32.806Z,31.62
2019-01-22T19:47:22.423Z,32.42
2019-01-22T19:50:14.819Z,32.33
2019-01-22T19:53:05.957Z,31.23
2019-01-22T19:55:55.958Z,30.52
2019-01-22T19:58:45.335Z,32.88
2019-01-22T20:01:36.245Z,34.05
2019-01-22T20:04:25.693Z,36.60
2019-01-22T20:07:15.641Z,36.17
2019-01-22T20:10:09.647Z,35.98
2019-01-22T20:12:59.958Z,36.53
2019-01-22T20:15:50.863Z,38.40
2019-01-22T20:18:41.565Z,38.10
2019-01-22T20:21:30.934Z,39.75
2019-01-22T20:24:21.717Z,40.17
2019-01-22T20:28:46.441Z,39.13
2019-01-22T20:31:13.898Z,40.60
2019-01-22T20:33:45.971Z,40.17
2019-01-22T20:39:25.827Z,41.88
2019-01-22T20:41:57.889Z,40.98
2019-01-22T20:44:30.059Z,40.00
2019-01-22T20:47:01.198Z,40.45
2019-01-22T20:49:31.830Z,39.65
2019-01-22T20:52:02.199Z,40.98
2019-01-22T20:54:32.683Z,39.63
2019-01-22T20:57:03.212Z,40.58
2019-01-22T21:01:43.888Z,37.58
2019-01-22T21:05:51.187Z,38.15
2019-01-22T21:09:56.743Z,36.70
2019-01-22T21:14:02.191Z,38.90
2019-01-22T21:18:07.645Z,38.92
2019-01-22T21:22:13.098Z,38.17
2019-01-22T21:26:18.549Z,41.28
2019-01-22T21:30:27.280Z,43.00
2019-01-22T21:34:32.751Z,44.48
2019-01-22T21:38:38.226Z,43.25
2019-01-22T21:42:43.844Z,52.30
2019-01-22T21:46:49.295Z,48.95
2019-01-22T21:50:55.366Z,49.38
2019-01-22T21:55:00.817Z,53.05
2019-01-22T21:59:06.380Z,53.92
2019-01-22T22:03:11.825Z,57.20
2019-01-22T22:07:17.175Z,56.63
2019-01-22T22:11:22.831Z,57.33
2019-01-22T22:15:28.385Z,58.15
2019-01-22T22:19:33.840Z,58.05
2019-01-22T22:23:39.190Z,59.10
2019-01-22T22:27:45.460Z,60.63
2019-01-22T22:31:51.836Z,60.23
2019-01-22T22:35:57.391Z,57.43
2019-01-22T22:40:02.948Z,55.85
2019-01-22T22:44:08.298Z,53.42
2019-01-22T22:48:13.749Z,54.63
2019-01-22T22:52:19.108Z,52.67
2019-01-22T22:56:24.450Z,49.77
2019-01-22T23:00:36.457Z,50.80
2019-01-22T23:04:43.124Z,51.33
2019-01-22T23:08:48.193Z,49.98
2019-01-22T23:12:53.302Z,51.45
2019-01-22T23:16:58.411Z,51.13
2019-01-22T23:21:03.482Z,50.52
2019-01-22T23:25:08.593Z,49.20
2019-01-22T23:29:13.674Z,50.30
2019-01-22T23:33:18.796Z,50.25
2019-01-22T23:37:23.927Z,50.85
2019-01-22T23:41:29.024Z,49.55
2019-01-22T23:45:35.762Z,46.37
2019-01-22T23:49:40.830Z,47.80
2019-01-22T23:53:45.936Z,45.73
2019-01-22T23:57:51.084Z,45.95
